Time;durP1;ratioP1;P1;durP2;ratioP2;P2;SDS_P1;SDS_P2;PMS_P1;PMS_P2;Temp;Humidity;BMP_temperature;BMP_pressure;BME280_temperature;BME280_humidity;BME280_pressure;Samples;Min_cycle;Max_cycle;Signal;HPM_P1;HPM_P2
2021/05/31 00:02:02;;;;;;;13.98;7.15;;;12.90;84.10;;;;;;5044540;28;20087;-75
2021/05/31 00:04:29;;;;;;;10.18;6.75;;;12.90;84.40;;;;;;5037214;28;20158;-75
2021/05/31 00:07:07;;;;;;;11.25;6.90;;;12.80;84.40;;;;;;5043664;28;20033;-76
2021/05/31 00:09:35;;;;;;;14.23;7.38;;;12.80;84.70;;;;;;5054258;28;20532;-76
2021/05/31 00:12:02;;;;;;;11.45;7.57;;;12.80;84.80;;;;;;5054150;28;20481;-76
2021/05/31 00:14:28;;;;;;;14.35;8.55;;;12.70;85.10;;;;;;5056119;28;20037;-75
2021/05/31 00:16:54;;;;;;;13.35;7.63;;;12.70;85.30;;;;;;5052953;28;20151;-75
2021/05/31 00:19:21;;;;;;;13.07;8.00;;;12.70;85.40;;;;;;5054870;28;20056;-75
2021/05/31 00:21:47;;;;;;;15.55;8.10;;;12.70;85.70;;;;;;5051999;28;20021;-75
2021/05/31 00:24:13;;;;;;;16.65;9.40;;;12.60;85.80;;;;;;5051577;28;20032;-75
2021/05/31 00:26:39;;;;;;;16.85;8.80;;;12.60;86.10;;;;;;5047240;28;20021;-75
2021/05/31 00:29:05;;;;;;;11.23;7.70;;;12.60;86.30;;;;;;5050430;28;20037;-75
2021/05/31 00:31:31;;;;;;;12.20;8.73;;;12.50;86.40;;;;;;5051593;28;20032;-75
2021/05/31 00:33:56;;;;;;;14.30;8.30;;;12.50;86.80;;;;;;5059935;28;20412;-75
2021/05/31 00:36:22;;;;;;;11.32;7.68;;;12.50;86.80;;;;;;5039788;28;20038;-75
2021/05/31 00:38:47;;;;;;;15.80;9.02;;;12.50;86.90;;;;;;5042832;28;20575;-75
2021/05/31 00:41:13;;;;;;;14.50;8.63;;;12.40;87.10;;;;;;5055287;28;20021;-75
2021/05/31 00:43:39;;;;;;;15.00;9.32;;;12.40;87.40;;;;;;5036024;28;20116;-76
2021/05/31 00:46:06;;;;;;;13.60;8.30;;;12.40;87.60;;;;;;5055295;28;20455;-76
2021/05/31 00:48:32;;;;;;;12.55;8.77;;;12.40;87.70;;;;;;5045247;28;20372;-75
2021/05/31 00:50:59;;;;;;;15.50;8.98;;;12.30;87.90;;;;;;5038879;28;20076;-75
2021/05/31 00:53:27;;;;;;;14.20;9.85;;;12.30;88.30;;;;;;5046732;28;20029;-75
2021/05/31 00:55:52;;;;;;;12.77;9.00;;;12.30;88.40;;;;;;5021490;28;20053;-76
2021/05/31 00:58:18;;;;;;;18.65;10.07;;;12.20;88.50;;;;;;5051268;28;20531;-75
2021/05/31 01:00:44;;;;;;;13.70;9.32;;;12.20;88.70;;;;;;5053400;28;20033;-75
2021/05/31 01:03:11;;;;;;;18.67;9.63;;;12.10;88.90;;;;;;5049222;28;20036;-75
2021/05/31 01:05:37;;;;;;;20.45;9.90;;;12.10;89.20;;;;;;5048808;28;20021;-75
2021/05/31 01:08:10;;;;;;;17.33;9.57;;;12.00;89.30;;;;;;5050930;28;20493;-75
2021/05/31 01:10:48;;;;;;;14.52;8.98;;;12.00;89.60;;;;;;5052697;28;20037;-75
2021/05/31 01:13:28;;;;;;;18.02;11.20;;;12.00;89.70;;;;;;5044943;28;20429;-75
2021/05/31 01:16:08;;;;;;;17.00;9.60;;;12.00;89.90;;;;;;5056569;28;20037;-75
2021/05/31 01:18:42;;;;;;;18.85;9.98;;;11.90;90.00;;;;;;5048900;28;20045;-75
2021/05/31 01:21:13;;;;;;;21.65;12.88;;;11.80;90.10;;;;;;5055354;28;20036;-75
2021/05/31 01:23:41;;;;;;;20.45;12.32;;;11.80;90.20;;;;;;5045365;28;20385;-75
2021/05/31 01:26:24;;;;;;;17.75;10.70;;;11.80;90.30;;;;;;5035607;28;20033;-75
2021/05/31 01:29:06;;;;;;;21.33;11.30;;;11.80;90.40;;;;;;5047719;28;20037;-75
2021/05/31 01:31:45;;;;;;;16.90;10.38;;;11.80;90.50;;;;;;5026912;28;20026;-75
2021/05/31 01:34:14;;;;;;;17.95;11.65;;;11.70;90.60;;;;;;5044063;28;20033;-75
2021/05/31 01:36:45;;;;;;;20.00;11.00;;;11.70;90.60;;;;;;5035202;28;20039;-75
2021/05/31 01:39:14;;;;;;;17.05;10.82;;;11.70;90.70;;;;;;5027820;28;20025;-75
2021/05/31 01:41:41;;;;;;;20.85;12.00;;;11.70;90.80;;;;;;5051269;28;20176;-75
2021/05/31 01:44:07;;;;;;;19.00;12.18;;;11.70;90.90;;;;;;5045977;28;20029;-75
2021/05/31 01:46:35;;;;;;;18.48;10.55;;;11.60;90.90;;;;;;5055296;28;20388;-75
2021/05/31 01:49:01;;;;;;;17.13;11.93;;;11.60;91.00;;;;;;5032099;28;20394;-75
2021/05/31 01:51:27;;;;;;;21.85;11.95;;;11.60;91.10;;;;;;5033834;28;20079;-75
2021/05/31 01:53:53;;;;;;;24.17;12.98;;;11.60;91.20;;;;;;5047244;28;20481;-75
2021/05/31 01:56:20;;;;;;;23.23;14.60;;;11.50;91.30;;;;;;5050430;28;20052;-75
2021/05/31 01:58:48;;;;;;;19.77;13.23;;;11.50;91.40;;;;;;5052255;28;20032;-75
2021/05/31 02:01:14;;;;;;;20.88;12.40;;;11.50;91.50;;;;;;5035090;28;20389;-75
2021/05/31 02:03:39;;;;;;;21.80;13.13;;;11.50;91.60;;;;;;5050160;28;20025;-75
2021/05/31 02:06:05;;;;;;;21.15;11.95;;;11.40;91.60;;;;;;5034324;28;20440;-75
2021/05/31 02:08:31;;;;;;;18.35;13.55;;;11.40;91.70;;;;;;5054158;28;20032;-74
2021/05/31 02:11:06;;;;;;;19.45;12.93;;;11.30;91.80;;;;;;5042190;28;20032;-75
2021/05/31 02:13:36;;;;;;;23.88;14.68;;;11.40;91.90;;;;;;5050493;28;20028;-75
2021/05/31 02:16:12;;;;;;;20.65;12.45;;;11.30;91.90;;;;;;5053035;28;20082;-75
2021/05/31 02:18:46;;;;;;;21.63;13.75;;;11.30;92.00;;;;;;5052499;28;20033;-75
2021/05/31 02:21:16;;;;;;;21.23;13.20;;;11.30;92.10;;;;;;5051965;28;20053;-75
2021/05/31 02:23:43;;;;;;;20.33;13.43;;;11.30;92.10;;;;;;5038331;28;20022;-75
2021/05/31 02:26:17;;;;;;;21.70;14.50;;;11.20;92.20;;;;;;5044781;28;20028;-75
2021/05/31 02:28:46;;;;;;;27.38;14.30;;;11.20;92.30;;;;;;5050521;28;20053;-75
2021/05/31 02:31:11;;;;;;;24.63;14.73;;;11.20;92.60;;;;;;5050678;28;20032;-75
2021/05/31 02:33:37;;;;;;;24.05;15.70;;;11.20;92.40;;;;;;5038344;28;20033;-75
2021/05/31 02:36:04;;;;;;;22.10;14.63;;;11.20;92.50;;;;;;5040773;28;20079;-75
2021/05/31 02:38:30;;;;;;;24.95;15.90;;;11.20;92.60;;;;;;5052093;28;20107;-75
2021/05/31 02:40:56;;;;;;;25.90;15.20;;;11.10;92.70;;;;;;5050925;28;20544;-75
2021/05/31 02:43:21;;;;;;;27.95;16.98;;;11.10;92.70;;;;;;5053950;28;20107;-75
2021/05/31 02:45:47;;;;;;;22.95;15.70;;;11.10;92.80;;;;;;5043838;28;20036;-75
2021/05/31 02:48:13;;;;;;;24.00;16.05;;;11.10;92.90;;;;;;5050142;28;20029;-75
2021/05/31 02:50:39;;;;;;;28.00;17.13;;;11.10;92.90;;;;;;5041312;28;20029;-75
2021/05/31 02:53:05;;;;;;;28.17;15.63;;;11.10;93.00;;;;;;5051755;28;20033;-75
2021/05/31 02:55:32;;;;;;;26.02;15.98;;;11.10;93.10;;;;;;5048592;28;20055;-75
2021/05/31 02:57:58;;;;;;;32.22;18.90;;;11.00;93.10;;;;;;5042035;28;20036;-75
2021/05/31 03:00:26;;;;;;;23.65;15.52;;;11.00;93.30;;;;;;5043537;28;20033;-75
2021/05/31 03:02:52;;;;;;;27.17;17.05;;;11.00;93.30;;;;;;5043608;28;20029;-75
2021/05/31 03:05:19;;;;;;;28.83;17.05;;;11.00;93.30;;;;;;5049652;28;20059;-75
2021/05/31 03:07:46;;;;;;;25.25;16.92;;;11.00;93.40;;;;;;5043718;28;20103;-75
2021/05/31 03:10:13;;;;;;;30.55;18.02;;;10.90;93.40;;;;;;5047546;28;20025;-75
2021/05/31 03:12:39;;;;;;;26.17;17.38;;;10.90;93.80;;;;;;5048651;28;20519;-75
2021/05/31 03:15:06;;;;;;;24.88;17.00;;;10.90;93.50;;;;;;5053012;28;20043;-75
2021/05/31 03:17:32;;;;;;;27.42;17.50;;;10.90;93.60;;;;;;5035919;28;20044;-75
2021/05/31 03:19:58;;;;;;;25.05;17.60;;;10.80;93.60;;;;;;5037702;28;20038;-76
2021/05/31 03:22:24;;;;;;;32.22;17.20;;;10.80;93.70;;;;;;5048784;28;20420;-74
2021/05/31 03:24:50;;;;;;;26.92;16.67;;;10.80;93.70;;;;;;5047425;28;20108;-75
2021/05/31 03:27:16;;;;;;;25.38;17.02;;;10.80;93.80;;;;;;5039470;28;20029;-75
2021/05/31 03:29:41;;;;;;;30.63;18.35;;;10.70;93.80;;;;;;5041079;28;20536;-74
2021/05/31 03:32:07;;;;;;;30.38;17.33;;;10.70;93.90;;;;;;5040670;28;20029;-76
2021/05/31 03:34:33;;;;;;;32.35;19.90;;;10.70;93.90;;;;;;5049447;28;20452;-75
2021/05/31 03:36:58;;;;;;;32.25;20.45;;;10.70;94.00;;;;;;5033403;28;20128;-75
2021/05/31 03:39:24;;;;;;;31.48;19.70;;;10.70;94.10;;;;;;5033576;28;20058;-75
2021/05/31 03:41:50;;;;;;;26.05;17.65;;;10.70;94.10;;;;;;5043543;28;20082;-75
2021/05/31 03:44:15;;;;;;;31.50;19.02;;;10.70;94.40;;;;;;5038004;28;20052;-74
2021/05/31 03:46:41;;;;;;;27.73;18.13;;;10.70;94.20;;;;;;5068359;28;20086;-76
2021/05/31 03:49:07;;;;;;;34.78;20.52;;;10.70;94.20;;;;;;5044498;28;20125;-75
2021/05/31 03:51:32;;;;;;;32.05;18.92;;;10.70;94.30;;;;;;5038538;28;20037;-75
2021/05/31 03:53:58;;;;;;;41.60;21.13;;;10.70;94.30;;;;;;5051284;28;20418;-75
2021/05/31 03:56:24;;;;;;;31.42;18.75;;;10.70;94.30;;;;;;5048908;28;20446;-75
2021/05/31 03:58:51;;;;;;;30.23;18.17;;;10.70;94.30;;;;;;5041896;28;20104;-75
2021/05/31 04:01:17;;;;;;;31.10;19.08;;;10.70;94.30;;;;;;5049447;28;20159;-75
2021/05/31 04:03:43;;;;;;;27.85;19.15;;;10.70;94.40;;;;;;5040492;28;20552;-74
2021/05/31 04:11:34;;;;;;;31.15;19.77;;;10.80;94.60;;;;;;5046691;28;20036;-74
2021/05/31 04:14:14;;;;;;;38.38;21.98;;;10.80;94.60;;;;;;5046741;28;20100;-75
2021/05/31 04:16:51;;;;;;;34.15;20.88;;;10.90;94.60;;;;;;5049063;28;20037;-74
2021/05/31 04:19:19;;;;;;;30.75;20.80;;;10.90;94.70;;;;;;5041988;28;20025;-74
2021/05/31 04:21:47;;;;;;;32.10;21.83;;;10.90;94.70;;;;;;5048059;28;20032;-75
2021/05/31 04:24:13;;;;;;;35.03;20.73;;;11.00;94.70;;;;;;5041235;28;20025;-75
2021/05/31 04:26:40;;;;;;;36.70;20.45;;;11.00;94.70;;;;;;5046184;28;20032;-75
2021/05/31 04:29:06;;;;;;;35.25;20.95;;;11.10;94.80;;;;;;5045558;28;20112;-75
2021/05/31 04:31:33;;;;;;;32.60;20.98;;;11.10;94.80;;;;;;5042608;28;20501;-75
2021/05/31 04:33:59;;;;;;;36.83;20.70;;;11.10;94.90;;;;;;5042172;28;20030;-75
2021/05/31 04:36:25;;;;;;;32.03;21.65;;;11.20;94.90;;;;;;5046470;28;20041;-75
2021/05/31 04:38:50;;;;;;;40.70;22.15;;;11.20;95.00;;;;;;5047459;28;20033;-75
2021/05/31 04:41:16;;;;;;;36.45;20.05;;;11.30;95.00;;;;;;5047307;28;20021;-75
2021/05/31 04:43:42;;;;;;;36.42;21.90;;;11.30;95.00;;;;;;5045227;28;20151;-75
2021/05/31 04:46:07;;;;;;;37.15;21.45;;;11.30;95.00;;;;;;5048284;28;20025;-75
2021/05/31 04:48:34;;;;;;;39.25;23.33;;;11.40;95.00;;;;;;5048845;28;20030;-75
2021/05/31 04:51:01;;;;;;;33.95;21.38;;;11.50;95.10;;;;;;5032274;28;20022;-75
2021/05/31 04:53:28;;;;;;;32.30;21.63;;;11.60;95.20;;;;;;5033621;28;20031;-75
2021/05/31 04:55:54;;;;;;;35.42;19.15;;;11.80;95.90;;;;;;5039249;28;20029;-75
2021/05/31 04:58:21;;;;;;;30.67;18.90;;;12.20;95.80;;;;;;5028542;28;20116;-76
2021/05/31 05:00:47;;;;;;;25.23;17.25;;;12.50;95.70;;;;;;5046337;28;20481;-75
2021/05/31 05:03:13;;;;;;;25.98;16.52;;;12.90;95.50;;;;;;5050738;28;20393;-76
2021/05/31 05:05:39;;;;;;;23.35;16.25;;;13.30;95.30;;;;;;5044003;28;20036;-76
2021/05/31 05:08:05;;;;;;;26.00;17.58;;;13.60;94.80;;;;;;5054466;28;20119;-75
2021/05/31 05:10:30;;;;;;;27.83;15.95;;;13.80;93.90;;;;;;5040589;28;20022;-75
2021/05/31 05:12:56;;;;;;;29.13;18.42;;;14.00;93.70;;;;;;5044767;28;20026;-76
2021/05/31 05:15:25;;;;;;;25.45;15.95;;;14.20;93.10;;;;;;5037602;28;20026;-75
2021/05/31 05:17:52;;;;;;;21.95;13.60;;;14.50;92.90;;;;;;5042714;28;20509;-75
2021/05/31 05:20:19;;;;;;;20.58;14.45;;;14.70;92.50;;;;;;5046766;28;20044;-76
2021/05/31 05:22:45;;;;;;;23.60;13.80;;;14.90;92.00;;;;;;5053029;28;20029;-76
2021/05/31 05:25:12;;;;;;;22.17;15.93;;;15.10;91.50;;;;;;5050499;28;20469;-77
2021/05/31 05:27:41;;;;;;;22.33;15.75;;;15.10;90.50;;;;;;5050341;28;20036;-76
2021/05/31 05:30:07;;;;;;;26.48;17.05;;;15.20;90.20;;;;;;5029114;28;20476;-76
2021/05/31 05:32:34;;;;;;;21.75;14.60;;;15.30;90.00;;;;;;5034655;28;20033;-75
2021/05/31 05:35:09;;;;;;;22.08;15.27;;;15.50;89.70;;;;;;5050839;28;20021;-75
2021/05/31 05:37:42;;;;;;;20.65;15.55;;;15.60;88.90;;;;;;5052739;28;20120;-75
2021/05/31 05:43:22;;;;;;;25.00;16.33;;;15.90;86.40;;;;;;4999230;28;20052;-75
2021/05/31 05:45:55;;;;;;;29.40;18.15;;;15.90;85.20;;;;;;5047051;28;20602;-76
2021/05/31 05:48:21;;;;;;;25.77;17.55;;;15.70;84.50;;;;;;5035416;28;20040;-76
2021/05/31 05:50:46;;;;;;;26.33;17.42;;;15.60;84.60;;;;;;5042058;28;20021;-75
2021/05/31 05:53:12;;;;;;;29.33;17.08;;;15.60;84.30;;;;;;5053802;28;20036;-76
2021/05/31 05:55:38;;;;;;;25.58;16.23;;;15.60;83.90;;;;;;5045708;28;20685;-75
2021/05/31 05:58:04;;;;;;;24.88;17.70;;;15.60;83.90;;;;;;5020438;28;20045;-76
2021/05/31 06:00:31;;;;;;;26.30;18.00;;;15.60;83.30;;;;;;5037500;28;20575;-75
2021/05/31 06:02:57;;;;;;;25.65;17.65;;;15.50;83.50;;;;;;5051362;28;20112;-75
2021/05/31 06:05:25;;;;;;;30.85;18.92;;;15.50;83.30;;;;;;5036772;28;20072;-76
2021/05/31 06:07:51;;;;;;;25.58;16.98;;;15.50;83.40;;;;;;5036409;28;20413;-75
2021/05/31 06:10:18;;;;;;;25.52;17.85;;;15.50;83.80;;;;;;5052662;28;20031;-75
2021/05/31 06:12:44;;;;;;;22.65;15.50;;;15.60;84.00;;;;;;5052030;28;20029;-74
2021/05/31 06:15:13;;;;;;;24.08;16.83;;;15.60;83.70;;;;;;5052560;28;20057;-74
2021/05/31 06:17:38;;;;;;;20.95;15.90;;;15.70;83.70;;;;;;5050551;28;20396;-74
2021/05/31 06:20:05;;;;;;;23.58;16.17;;;15.80;83.50;;;;;;5039746;28;20044;-74
2021/05/31 06:22:33;;;;;;;26.80;16.75;;;15.90;83.20;;;;;;5053375;28;20063;-74
2021/05/31 06:24:59;;;;;;;23.92;16.30;;;15.90;83.10;;;;;;5053121;28;20029;-75
2021/05/31 06:27:24;;;;;;;24.73;16.88;;;16.00;83.20;;;;;;5052124;28;20036;-74
2021/05/31 06:29:50;;;;;;;22.85;16.25;;;16.20;83.40;;;;;;5031876;28;20024;-74
2021/05/31 06:32:16;;;;;;;24.65;17.27;;;16.30;82.50;;;;;;5052019;28;20041;-74
2021/05/31 06:34:42;;;;;;;24.08;16.27;;;16.40;82.10;;;;;;5051503;28;20409;-74
2021/05/31 06:37:08;;;;;;;21.90;16.60;;;16.40;82.00;;;;;;5033812;28;20052;-74
2021/05/31 06:39:33;;;;;;;24.17;16.67;;;16.50;81.90;;;;;;5053206;28;20030;-74
2021/05/31 06:41:59;;;;;;;25.75;18.30;;;16.50;81.70;;;;;;5052710;28;20029;-74
2021/05/31 06:44:24;;;;;;;24.42;15.75;;;16.50;81.50;;;;;;5052446;28;20131;-74
2021/05/31 06:46:50;;;;;;;25.85;16.65;;;16.50;81.80;;;;;;5049253;28;20033;-74
2021/05/31 06:49:15;;;;;;;22.75;15.90;;;16.60;81.70;;;;;;5050528;28;20028;-75
2021/05/31 06:51:41;;;;;;;25.85;15.80;;;16.70;81.20;;;;;;5053197;28;20029;-75
2021/05/31 06:54:08;;;;;;;27.83;15.45;;;16.70;81.10;;;;;;5035146;28;20032;-73
2021/05/31 06:56:33;;;;;;;23.63;17.38;;;16.80;81.10;;;;;;5053762;28;20112;-74
2021/05/31 06:58:59;;;;;;;23.73;16.58;;;16.80;80.90;;;;;;5043873;28;20078;-75
2021/05/31 07:01:24;;;;;;;22.23;15.40;;;16.90;80.70;;;;;;5049771;28;20033;-73
2021/05/31 07:03:50;;;;;;;25.15;16.70;;;17.00;80.80;;;;;;5040266;28;20107;-73
2021/05/31 07:06:16;;;;;;;22.92;15.75;;;17.10;80.50;;;;;;5051211;28;20033;-73
2021/05/31 07:08:41;;;;;;;21.20;15.63;;;17.10;80.20;;;;;;5051979;28;20443;-74
2021/05/31 07:11:16;;;;;;;26.50;17.38;;;17.20;80.70;;;;;;5052204;28;20025;-73
2021/05/31 07:13:43;;;;;;;25.88;16.67;;;17.20;79.80;;;;;;5052046;28;20056;-73
2021/05/31 07:16:12;;;;;;;21.55;16.30;;;17.30;79.50;;;;;;5052771;28;20053;-74
2021/05/31 07:18:38;;;;;;;27.38;17.73;;;17.40;79.70;;;;;;5051290;28;20033;-74
2021/05/31 07:21:04;;;;;;;28.30;16.08;;;17.40;79.30;;;;;;5053160;28;20491;-73
2021/05/31 07:23:30;;;;;;;25.83;16.73;;;17.50;79.30;;;;;;5051454;28;20031;-75
2021/05/31 07:25:55;;;;;;;21.90;15.40;;;17.60;79.20;;;;;;5051766;28;20073;-73
2021/05/31 07:28:21;;;;;;;20.45;14.45;;;17.70;78.40;;;;;;5050541;28;20029;-74
2021/05/31 07:30:46;;;;;;;21.02;15.88;;;17.70;78.50;;;;;;5050558;28;20029;-73
2021/05/31 07:33:13;;;;;;;21.77;15.38;;;17.80;78.40;;;;;;5051324;28;20036;-73
2021/05/31 07:35:39;;;;;;;21.65;15.82;;;17.80;78.20;;;;;;5050695;28;20029;-74
2021/05/31 07:38:05;;;;;;;24.77;16.52;;;17.80;77.60;;;;;;5043722;28;20041;-74
2021/05/31 07:40:32;;;;;;;26.42;16.00;;;17.90;77.70;;;;;;5052060;28;20186;-74
2021/05/31 07:42:57;;;;;;;24.60;15.32;;;18.00;77.60;;;;;;5052022;28;20029;-74
2021/05/31 07:45:24;;;;;;;21.55;16.13;;;18.10;77.70;;;;;;5050962;28;20078;-74
2021/05/31 07:47:49;;;;;;;23.92;15.80;;;18.30;77.40;;;;;;5051971;28;20041;-73
2021/05/31 07:50:16;;;;;;;20.50;15.50;;;18.40;77.00;;;;;;5048957;28;20375;-74
2021/05/31 07:52:42;;;;;;;18.35;14.52;;;18.40;77.30;;;;;;5035804;28;20021;-74
2021/05/31 07:55:11;;;;;;;20.98;13.10;;;18.60;77.40;;;;;;5046279;28;20048;-74
2021/05/31 07:57:39;;;;;;;19.60;13.57;;;18.80;76.90;;;;;;5052438;28;20033;-75
2021/05/31 08:00:08;;;;;;;17.40;13.05;;;19.00;76.30;;;;;;5047405;28;20036;-75
2021/05/31 08:02:35;;;;;;;17.30;13.48;;;19.20;75.60;;;;;;5051617;28;20111;-74
2021/05/31 08:05:01;;;;;;;21.48;13.57;;;19.30;75.30;;;;;;5049387;28;20025;-75
2021/05/31 08:07:26;;;;;;;21.17;13.15;;;19.30;74.80;;;;;;5051333;28;20033;-74
2021/05/31 08:09:52;;;;;;;20.45;14.35;;;19.30;73.90;;;;;;5033918;28;20380;-74
2021/05/31 08:12:17;;;;;;;18.90;13.38;;;19.20;73.30;;;;;;5051284;28;20025;-75
2021/05/31 08:14:43;;;;;;;20.17;12.50;;;19.20;73.80;;;;;;5052576;28;20473;-74
2021/05/31 08:17:08;;;;;;;19.75;11.85;;;19.20;73.80;;;;;;5050657;28;20060;-74
2021/05/31 08:19:34;;;;;;;17.35;11.50;;;19.40;73.60;;;;;;5034639;28;20053;-74
2021/05/31 08:22:02;;;;;;;17.20;12.20;;;19.50;73.20;;;;;;5050675;28;20041;-74
2021/05/31 08:24:27;;;;;;;18.25;11.30;;;19.60;72.50;;;;;;5051444;28;20033;-74
2021/05/31 08:26:53;;;;;;;25.00;10.85;;;19.70;72.00;;;;;;5049576;28;20123;-74
2021/05/31 08:29:21;;;;;;;15.30;11.13;;;19.70;71.40;;;;;;5052649;28;20060;-74
2021/05/31 08:31:50;;;;;;;15.25;9.70;;;19.70;71.10;;;;;;5054633;28;20032;-74
2021/05/31 08:34:16;;;;;;;17.73;9.95;;;19.80;70.90;;;;;;5032756;28;20033;-74
2021/05/31 08:36:44;;;;;;;12.68;9.38;;;19.90;70.50;;;;;;5054015;28;20099;-74
2021/05/31 08:39:10;;;;;;;13.48;8.98;;;20.00;70.20;;;;;;5054668;28;20025;-74
2021/05/31 08:41:36;;;;;;;14.60;8.95;;;20.00;69.30;;;;;;5055930;28;20461;-74
2021/05/31 08:44:02;;;;;;;14.43;9.00;;;20.10;68.50;;;;;;5049424;28;20018;-74
2021/05/31 08:46:28;;;;;;;12.95;8.90;;;20.10;68.30;;;;;;5046743;28;20033;-74
2021/05/31 08:48:55;;;;;;;15.18;8.70;;;20.10;67.70;;;;;;5054968;28;20025;-74
2021/05/31 08:51:21;;;;;;;11.05;7.32;;;20.10;67.60;;;;;;5052521;28;20029;-74
2021/05/31 08:53:47;;;;;;;11.40;7.80;;;20.20;68.00;;;;;;5055380;28;20029;-74
2021/05/31 08:56:13;;;;;;;11.93;7.28;;;20.30;66.30;;;;;;5055618;28;20024;-75
2021/05/31 08:58:39;;;;;;;11.23;7.82;;;20.40;66.60;;;;;;5051750;28;20724;-75
2021/05/31 09:01:04;;;;;;;17.02;7.90;;;20.50;66.40;;;;;;5053485;28;20032;-74
2021/05/31 09:03:31;;;;;;;11.52;7.97;;;20.60;66.90;;;;;;5052334;28;20016;-74
2021/05/31 09:06:01;;;;;;;10.60;6.88;;;20.70;65.60;;;;;;5053238;28;20075;-74
2021/05/31 09:08:26;;;;;;;10.48;5.72;;;20.80;64.70;;;;;;5053565;28;20033;-74
2021/05/31 09:10:57;;;;;;;9.60;5.97;;;20.80;63.30;;;;;;5054401;28;20036;-74
2021/05/31 09:13:52;;;;;;;9.43;5.97;;;20.80;64.00;;;;;;5054014;28;20025;-74
2021/05/31 09:16:29;;;;;;;7.00;5.13;;;21.00;64.40;;;;;;5016977;28;20056;-74
2021/05/31 09:19:13;;;;;;;12.75;6.40;;;21.20;63.30;;;;;;5055034;28;20039;-75
2021/05/31 09:21:39;;;;;;;12.18;6.07;;;21.20;61.60;;;;;;5033823;28;20072;-74
2021/05/31 09:24:11;;;;;;;10.35;6.97;;;21.20;62.00;;;;;;5043886;28;20048;-74
2021/05/31 09:26:51;;;;;;;11.00;5.45;;;21.30;61.50;;;;;;5053936;28;20019;-74
2021/05/31 09:29:19;;;;;;;10.32;7.18;;;21.30;62.10;;;;;;5044273;28;20108;-75
2021/05/31 09:31:45;;;;;;;9.02;6.68;;;21.40;61.10;;;;;;5052460;28;20036;-75
2021/05/31 09:34:14;;;;;;;11.73;6.82;;;21.40;60.40;;;;;;5053833;28;20113;-74
2021/05/31 09:36:59;;;;;;;8.50;5.95;;;21.40;61.80;;;;;;5041426;28;20040;-75
2021/05/31 09:39:36;;;;;;;8.13;5.47;;;21.60;61.50;;;;;;5051251;28;20079;-74
2021/05/31 09:42:15;;;;;;;16.05;6.30;;;21.70;59.00;;;;;;5052554;28;20047;-74
2021/05/31 09:44:43;;;;;;;9.68;4.95;;;21.60;58.60;;;;;;5050126;28;20029;-73
2021/05/31 09:47:08;;;;;;;8.18;4.90;;;21.60;59.20;;;;;;5054882;28;20031;-75
2021/05/31 09:49:38;;;;;;;8.60;4.63;;;21.80;59.10;;;;;;5049142;28;20029;-74
2021/05/31 09:52:10;;;;;;;7.90;4.25;;;21.90;58.60;;;;;;5037228;28;20024;-73
2021/05/31 09:54:37;;;;;;;;;;;21.90;58.20;;;;;;5055961;28;20036;-73
2021/05/31 09:57:28;;;;;;;6.30;4.07;;;22.00;58.90;;;;;;5052181;28;19913;-74
2021/05/31 10:00:05;;;;;;;7.20;3.85;;;22.20;57.10;;;;;;5053742;28;20031;-74
2021/05/31 10:05:13;;;;;;;7.78;3.60;;;22.20;56.60;;;;;;5053196;28;20033;-74
2021/05/31 10:07:46;;;;;;;6.85;3.30;;;22.30;55.70;;;;;;5045246;28;20033;-75
2021/05/31 10:10:13;;;;;;;5.30;3.75;;;22.30;55.00;;;;;;5036586;28;20029;-76
2021/05/31 10:12:39;;;;;;;6.82;3.15;;;22.30;54.30;;;;;;5054359;28;20029;-75
2021/05/31 10:15:07;;;;;;;6.45;3.10;;;22.30;54.40;;;;;;5054078;28;20029;-73
2021/05/31 10:17:33;;;;;;;5.80;2.60;;;22.40;54.10;;;;;;5050580;28;20098;-74
2021/05/31 10:20:01;;;;;;;4.43;2.65;;;22.50;53.50;;;;;;5052765;28;20052;-74
2021/05/31 10:22:26;;;;;;;6.38;3.20;;;22.40;52.40;;;;;;5052129;28;20025;-74
2021/05/31 10:24:53;;;;;;;6.43;3.47;;;22.30;52.40;;;;;;5052281;28;20021;-74
2021/05/31 10:27:19;;;;;;;7.10;3.67;;;22.30;53.30;;;;;;5046667;28;20099;-74
2021/05/31 10:29:45;;;;;;;8.90;4.97;;;22.30;52.90;;;;;;5049661;28;20052;-74
2021/05/31 10:32:12;;;;;;;5.72;3.85;;;22.20;53.00;;;;;;5052521;28;20056;-74
2021/05/31 10:34:49;;;;;;;5.03;3.40;;;22.20;54.00;;;;;;5053199;28;20481;-74
2021/05/31 10:37:19;;;;;;;7.57;2.95;;;22.30;54.10;;;;;;5052885;28;20064;-74
2021/05/31 10:39:55;;;;;;;5.55;3.17;;;22.40;53.80;;;;;;5053599;28;20405;-74
2021/05/31 10:42:22;;;;;;;5.85;3.20;;;22.50;53.80;;;;;;5053572;28;20033;-74
2021/05/31 10:44:47;;;;;;;5.68;2.63;;;22.60;52.70;;;;;;5052602;28;20488;-74
2021/05/31 10:47:17;;;;;;;5.78;2.80;;;22.60;51.70;;;;;;5051758;28;20037;-74
2021/05/31 10:49:53;;;;;;;6.80;3.80;;;22.60;51.90;;;;;;5052002;28;20025;-74
2021/05/31 10:52:19;;;;;;;6.05;3.80;;;22.60;52.20;;;;;;5052308;28;20032;-74
2021/05/31 10:54:45;;;;;;;5.82;2.88;;;22.50;52.10;;;;;;5054003;28;20040;-74
2021/05/31 10:57:10;;;;;;;6.82;3.50;;;22.50;52.60;;;;;;5050567;28;20029;-74
2021/05/31 10:59:50;;;;;;;7.03;3.67;;;22.50;51.90;;;;;;5049431;28;20024;-74
2021/05/31 11:02:27;;;;;;;6.65;3.17;;;22.50;52.30;;;;;;5052098;28;20085;-75
2021/05/31 11:05:04;;;;;;;5.78;3.38;;;22.60;52.50;;;;;;5050476;28;20021;-74
2021/05/31 11:07:30;;;;;;;5.38;2.90;;;22.60;52.70;;;;;;5046464;28;20033;-74
2021/05/31 11:09:55;;;;;;;6.22;2.92;;;22.60;52.60;;;;;;5042100;28;20048;-74
2021/05/31 11:12:29;;;;;;;6.57;3.60;;;22.70;52.00;;;;;;5046742;28;20614;-74
2021/05/31 11:15:08;;;;;;;4.93;3.13;;;22.80;51.40;;;;;;5053342;28;20374;-74
2021/05/31 11:17:52;;;;;;;5.50;2.92;;;22.80;51.70;;;;;;5052786;28;20033;-74
2021/05/31 11:20:19;;;;;;;6.57;2.83;;;22.90;52.20;;;;;;5042330;28;20041;-74
2021/05/31 11:23:02;;;;;;;6.22;2.17;;;22.90;51.90;;;;;;5037550;28;20048;-74
2021/05/31 11:25:30;;;;;;;4.00;2.50;;;23.00;52.20;;;;;;5040421;28;20034;-74
2021/05/31 11:27:59;;;;;;;3.67;2.22;;;23.10;52.40;;;;;;5038751;28;20021;-75
2021/05/31 11:30:27;;;;;;;7.18;2.20;;;23.20;50.80;;;;;;5017940;28;20037;-76
2021/05/31 11:32:56;;;;;;;4.90;3.08;;;23.20;50.60;;;;;;5052794;28;20075;-75
2021/05/31 11:35:26;;;;;;;5.65;2.30;;;23.20;49.30;;;;;;5052921;28;20103;-75
2021/05/31 11:37:52;;;;;;;6.05;2.60;;;23.00;50.50;;;;;;5046162;28;20033;-74
2021/05/31 11:40:32;;;;;;;6.28;2.30;;;23.00;49.50;;;;;;5053470;28;20025;-75
2021/05/31 11:43:03;;;;;;;4.45;2.42;;;23.10;49.50;;;;;;5052985;28;20025;-76
2021/05/31 11:45:37;;;;;;;5.95;2.38;;;23.20;50.00;;;;;;5052411;28;20474;-76
2021/05/31 11:48:07;;;;;;;6.00;2.78;;;23.30;49.80;;;;;;5053260;28;20068;-77
2021/05/31 11:50:34;;;;;;;4.78;2.10;;;23.20;48.60;;;;;;5053182;28;20025;-75
2021/05/31 11:53:04;;;;;;;5.60;1.70;;;23.10;49.00;;;;;;5053178;28;20031;-76
2021/05/31 11:55:30;;;;;;;5.38;2.55;;;23.20;49.00;;;;;;5051817;28;20025;-77
2021/05/31 11:57:57;;;;;;;4.47;2.17;;;23.30;47.80;;;;;;5053113;28;20116;-76
2021/05/31 12:00:32;;;;;;;6.63;2.03;;;23.20;47.20;;;;;;5052571;28;20512;-74
2021/05/31 12:02:58;;;;;;;4.45;1.50;;;23.30;47.00;;;;;;5040208;28;20056;-74
2021/05/31 12:05:37;;;;;;;2.75;1.33;;;23.30;47.00;;;;;;5052867;28;20497;-76
2021/05/31 12:08:07;;;;;;;3.35;1.23;;;23.30;47.30;;;;;;5014497;28;20029;-76
2021/05/31 12:10:33;;;;;;;2.83;1.50;;;23.40;45.70;;;;;;5047028;28;20112;-76
2021/05/31 12:12:59;;;;;;;3.28;1.42;;;23.40;46.20;;;;;;5051959;28;20044;-73
2021/05/31 12:15:25;;;;;;;3.90;1.77;;;23.40;44.90;;;;;;5052424;28;20031;-78
2021/05/31 12:17:52;;;;;;;5.65;2.15;;;23.50;45.90;;;;;;5053145;28;20041;-74
2021/05/31 12:20:30;;;;;;;4.18;2.45;;;23.50;45.90;;;;;;5052214;28;20075;-76
2021/05/31 12:22:56;;;;;;;3.45;1.73;;;23.40;45.80;;;;;;5052824;28;20033;-76
2021/05/31 12:25:21;;;;;;;3.25;1.80;;;23.30;46.00;;;;;;5053453;28;20033;-77
2021/05/31 12:27:47;;;;;;;3.65;1.48;;;23.30;45.80;;;;;;5054068;28;20747;-75
2021/05/31 12:30:15;;;;;;;3.28;2.10;;;23.30;44.50;;;;;;5053067;28;20366;-76
2021/05/31 12:32:41;;;;;;;3.58;1.88;;;23.30;45.50;;;;;;5054333;28;20017;-77
2021/05/31 12:35:09;;;;;;;4.05;2.13;;;23.40;45.70;;;;;;5053650;28;20144;-76
2021/05/31 12:37:37;;;;;;;5.82;1.80;;;23.40;45.80;;;;;;5053736;28;20056;-76
2021/05/31 12:40:07;;;;;;;4.25;1.70;;;23.40;45.40;;;;;;5015985;28;20037;-77
2021/05/31 12:42:32;;;;;;;5.30;2.90;;;23.30;46.00;;;;;;5036243;28;20076;-77
2021/05/31 12:45:07;;;;;;;5.50;2.92;;;23.40;46.30;;;;;;5035696;28;20037;-76
2021/05/31 12:47:39;;;;;;;4.35;3.03;;;23.50;47.50;;;;;;5035210;28;20072;-76
2021/05/31 12:50:10;;;;;;;5.87;3.60;;;23.60;47.40;;;;;;5041251;28;20107;-76